Time,TemperatureF,DewpointF,PressureIn,WindDirection,WindDirectionDegrees,WindSpeedMPH,WindSpeedGustMPH,Humidity,HourlyPrecipIn,Conditions,Clouds,dailyrainin,SoftwareType,DateUTC
2013-04-03 00:21:00,43.5,22.0,30.20,NNW,337,0.0,3.0,42,0.00,,,0.00,weatherlink.com 1.10,2013-04-03 04:21:00,
2013-04-03 00:36:00,42.9,21.0,30.20,NNW,340,3.0,4.0,42,0.00,,,0.00,weatherlink.com 1.10,2013-04-03 04:36:00,
2013-04-03 00:51:00,42.6,20.0,30.20,NNW,337,3.0,6.0,41,0.00,,,0.00,weatherlink.com 1.10,2013-04-03 04:51:00,
2013-04-03 01:06:00,42.5,20.0,30.21,North,1,2.0,5.0,41,0.00,,,0.00,weatherlink.com 1.10,2013-04-03 05:06:00,
2013-04-03 01:21:00,42.1,20.0,30.22,ENE,70,0.0,1.0,41,0.00,,,0.00,weatherlink.com 1.10,2013-04-03 05:21:00,
2013-04-03 01:36:00,42.0,19.0,30.22,NNE,18,1.0,2.0,40,0.00,,,0.00,weatherlink.com 1.10,2013-04-03 05:36:00,
2013-04-03 01:51:00,42.0,20.0,30.22,WNW,285,0.0,3.0,41,0.00,,,0.00,weatherlink.com 1.10,2013-04-03 05:51:00,
2013-04-03 02:06:00,42.0,19.0,30.22,North,354,0.0,5.0,39,0.00,,,0.00,weatherlink.com 1.10,2013-04-03 06:06:00,
2013-04-03 02:21:00,41.8,18.0,30.22,NNW,328,1.0,5.0,39,0.00,,,0.00,weatherlink.com 1.10,2013-04-03 06:21:00,
2013-04-03 02:36:00,41.5,18.0,30.22,North,354,2.0,5.0,39,0.00,,,0.00,weatherlink.com 1.10,2013-04-03 06:36:00,
2013-04-03 02:51:00,41.3,17.0,30.21,NNW,333,2.0,4.0,38,0.00,,,0.00,weatherlink.com 1.10,2013-04-03 06:51:00,
2013-04-03 03:06:00,41.0,18.0,30.21,NNW,334,3.0,4.0,39,0.00,,,0.00,weatherlink.com 1.10,2013-04-03 07:06:00,
2013-04-03 03:22:00,40.8,17.0,30.21,North,349,3.0,5.0,39,0.00,,,0.00,weatherlink.com 1.10,2013-04-03 07:22:00,
2013-04-03 03:36:00,40.7,18.0,30.21,NNW,334,2.0,3.0,40,0.00,,,0.00,weatherlink.com 1.10,2013-04-03 07:36:00,
2013-04-03 03:51:00,40.3,18.0,30.21,NNW,328,1.0,3.0,40,0.00,,,0.00,weatherlink.com 1.10,2013-04-03 07:51:00,
2013-04-03 04:06:00,40.2,17.0,30.22,North,353,1.0,4.0,39,0.00,,,0.00,weatherlink.com 1.10,2013-04-03 08:06:00,
2013-04-03 04:22:00,40.0,17.0,30.23,NW,326,2.0,4.0,40,0.00,,,0.00,weatherlink.com 1.10,2013-04-03 08:22:00,
2013-04-03 04:52:00,39.8,17.0,30.22,NNW,340,2.0,4.0,39,0.00,,,0.00,weatherlink.com 1.10,2013-04-03 08:52:00,
2013-04-03 05:07:00,39.5,17.0,30.22,NNW,332,1.0,2.0,41,0.00,,,0.00,weatherlink.com 1.10,2013-04-03 09:07:00,
2013-04-03 05:22:00,38.9,17.0,30.22,NNW,347,0.0,2.0,41,0.00,,,0.00,weatherlink.com 1.10,2013-04-03 09:22:00,
2013-04-03 05:37:00,38.4,17.0,30.22,NW,325,0.0,3.0,42,0.00,,,0.00,weatherlink.com 1.10,2013-04-03 09:37:00,
2013-04-03 05:52:00,37.7,17.0,30.22,NE,41,0.0,0.0,44,0.00,,,0.00,weatherlink.com 1.10,2013-04-03 09:52:00,
2013-04-03 06:07:00,37.3,16.0,30.23,ENE,68,0.0,1.0,42,0.00,,,0.00,weatherlink.com 1.10,2013-04-03 10:07:00,
2013-04-03 06:22:00,36.8,17.0,30.25,WSW,238,0.0,1.0,44,0.00,,,0.00,weatherlink.com 1.10,2013-04-03 10:22:00,
2013-04-03 06:37:00,36.3,16.0,30.25,SSW,205,0.0,2.0,44,0.00,,,0.00,weatherlink.com 1.10,2013-04-03 10:37:00,
2013-04-03 06:52:00,36.1,15.0,30.25,SE,144,0.0,1.0,43,0.00,,,0.00,weatherlink.com 1.10,2013-04-03 10:52:00,
2013-04-03 07:07:00,35.7,16.0,30.26,SSW,193,0.0,1.0,44,0.00,,,0.00,weatherlink.com 1.10,2013-04-03 11:07:00,
2013-04-03 07:13:00,35.4,16.1,30.27,SSW,193,0.0,1.0,45,0.00,,,0.00,Wunderground v.1.15,2013-04-03 11:13:00,
2013-04-03 07:19:00,35.1,15.9,30.27,South,190,0.0,0.0,45,0.00,,,0.00,Wunderground v.1.15,2013-04-03 11:19:00,
2013-04-03 07:25:00,35.1,15.9,30.27,South,176,0.0,0.0,45,0.00,,,0.00,Wunderground v.1.15,2013-04-03 11:25:00,
2013-04-03 07:30:00,35.1,15.9,30.27,South,176,0.0,0.0,45,0.00,,,0.00,Wunderground v.1.15,2013-04-03 11:30:00,
2013-04-03 07:36:00,35.0,15.8,30.28,South,176,0.0,0.0,45,0.00,,,0.00,Wunderground v.1.15,2013-04-03 11:36:00,
2013-04-03 07:42:00,35.0,16.3,30.28,South,176,0.0,0.0,46,0.00,,,0.00,Wunderground v.1.15,2013-04-03 11:42:00,
2013-04-03 07:48:00,34.9,16.2,30.28,South,174,0.0,1.0,46,0.00,,,0.00,Wunderground v.1.15,2013-04-03 11:48:00,
2013-04-03 07:53:00,35.0,16.3,30.29,South,169,0.0,2.0,46,0.00,,,0.00,Wunderground v.1.15,2013-04-03 11:53:00,
2013-04-03 07:59:00,35.2,16.5,30.30,SSW,205,0.0,0.0,46,0.00,,,0.00,Wunderground v.1.15,2013-04-03 11:59:00,
2013-04-03 08:04:00,35.3,16.6,30.30,SSW,205,0.0,0.0,46,0.00,,,0.00,Wunderground v.1.15,2013-04-03 12:04:00,
2013-04-03 08:10:00,35.4,16.6,30.30,SSW,205,0.0,0.0,46,0.00,,,0.00,Wunderground v.1.15,2013-04-03 12:10:00,
2013-04-03 08:17:00,35.6,15.8,30.30,SSW,205,0.0,0.0,44,0.00,,,0.00,Wunderground v.1.15,2013-04-03 12:17:00,
2013-04-03 08:23:00,35.9,16.0,30.30,SSW,205,0.0,0.0,44,0.00,,,0.00,weatherlink.com 1.10,2013-04-03 12:23:00,
2013-04-03 08:38:00,37.3,15.0,30.30,NE,53,0.0,0.0,41,0.00,,,0.00,weatherlink.com 1.10,2013-04-03 12:38:00,
2013-04-03 08:53:00,38.4,16.0,30.31,ENE,61,0.0,0.0,40,0.00,,,0.00,weatherlink.com 1.10,2013-04-03 12:53:00,
2013-04-03 09:08:00,39.3,17.0,30.31,NE,46,0.0,0.0,40,0.00,,,0.00,weatherlink.com 1.10,2013-04-03 13:08:00,
2013-04-03 09:23:00,39.7,18.0,30.30,SE,139,1.0,2.0,41,0.00,,,0.00,weatherlink.com 1.10,2013-04-03 13:23:00,
2013-04-03 09:38:00,40.1,16.0,30.30,North,4,3.0,3.0,37,0.00,,,0.00,weatherlink.com 1.10,2013-04-03 13:38:00,
2013-04-03 09:53:00,40.7,17.0,30.29,NE,44,3.0,5.0,39,0.00,,,0.00,weatherlink.com 1.10,2013-04-03 13:53:00,
2013-04-03 10:08:00,41.9,18.0,30.29,NE,46,4.0,6.0,38,0.00,,,0.00,weatherlink.com 1.10,2013-04-03 14:08:00,
2013-04-03 10:23:00,42.5,17.0,30.28,NE,39,2.0,4.0,36,0.00,,,0.00,weatherlink.com 1.10,2013-04-03 14:23:00,
2013-04-03 10:38:00,43.1,20.0,30.28,NNE,30,0.0,4.0,39,0.00,,,0.00,weatherlink.com 1.10,2013-04-03 14:38:00,
2013-04-03 10:54:00,44.2,19.0,30.28,NE,39,2.0,4.0,37,0.00,,,0.00,weatherlink.com 1.10,2013-04-03 14:54:00,
2013-04-03 11:09:00,45.0,19.0,30.28,NNW,328,0.0,5.0,35,0.00,,,0.00,weatherlink.com 1.10,2013-04-03 15:09:00,
2013-04-03 11:24:00,45.6,19.0,30.28,NNE,29,1.0,9.0,34,0.00,,,0.00,weatherlink.com 1.10,2013-04-03 15:24:00,
2013-04-03 11:39:00,46.4,20.0,30.28,WNW,291,0.0,4.0,35,0.00,,,0.00,weatherlink.com 1.10,2013-04-03 15:39:00,
2013-04-03 11:54:00,47.4,20.0,30.28,NE,36,1.0,4.0,34,0.00,,,0.00,weatherlink.com 1.10,2013-04-03 15:54:00,
2013-04-03 12:39:00,49.4,21.0,30.28,NE,46,5.0,6.0,33,0.00,,,0.00,weatherlink.com 1.10,2013-04-03 16:39:00,
2013-04-03 12:54:00,50.3,22.0,30.27,NNW,332,3.0,5.0,33,0.00,,,0.00,weatherlink.com 1.10,2013-04-03 16:54:00,
2013-04-03 13:09:00,50.5,22.0,30.26,NNE,16,3.0,5.0,33,0.00,,,0.00,weatherlink.com 1.10,2013-04-03 17:09:00,
2013-04-03 13:24:00,51.3,21.0,30.26,NW,322,4.0,6.0,31,0.00,,,0.00,weatherlink.com 1.10,2013-04-03 17:24:00,
2013-04-03 13:54:00,52.7,23.0,30.24,NNE,31,0.0,5.0,31,0.00,,,0.00,weatherlink.com 1.10,2013-04-03 17:54:00,
2013-04-03 14:09:00,52.6,23.0,30.24,NNW,347,4.0,6.0,31,0.00,,,0.00,weatherlink.com 1.10,2013-04-03 18:09:00,
2013-04-03 14:24:00,53.2,23.0,30.23,North,358,3.0,6.0,31,0.00,,,0.00,weatherlink.com 1.10,2013-04-03 18:24:00,
2013-04-03 14:39:00,53.7,24.0,30.23,North,355,5.0,7.0,31,0.00,,,0.00,weatherlink.com 1.10,2013-04-03 18:39:00,
2013-04-03 14:54:00,54.0,23.0,30.24,ESE,102,1.0,6.0,30,0.00,,,0.00,weatherlink.com 1.10,2013-04-03 18:54:00,
2013-04-03 15:04:00,54.4,23.6,30.23,North,11,2.0,2.0,30,0.00,,,0.00,Wunderground v.1.15,2013-04-03 19:04:00,
2013-04-03 15:10:00,54.7,23.8,30.23,ENE,65,2.0,3.0,30,0.00,,,0.00,Wunderground v.1.15,2013-04-03 19:10:00,
2013-04-03 15:15:00,54.9,24.0,30.23,NE,44,2.0,3.0,30,0.00,,,0.00,Wunderground v.1.15,2013-04-03 19:15:00,
2013-04-03 15:22:00,55.0,24.1,30.23,ESE,120,2.0,3.0,30,0.00,,,0.00,Wunderground v.1.15,2013-04-03 19:22:00,
2013-04-03 15:27:00,55.5,23.7,30.23,NW,322,2.0,4.0,29,0.00,,,0.00,Wunderground v.1.15,2013-04-03 19:27:00,
2013-04-03 15:33:00,55.2,23.5,30.23,North,349,3.0,5.0,29,0.00,,,0.00,Wunderground v.1.15,2013-04-03 19:33:00,
2013-04-03 15:39:00,55.1,23.4,30.23,ENE,65,3.0,3.0,29,0.00,,,0.00,Wunderground v.1.15,2013-04-03 19:39:00,
2013-04-03 15:45:00,55.1,23.4,30.23,NNW,330,2.0,4.0,29,0.00,,,0.00,Wunderground v.1.15,2013-04-03 19:45:00,
2013-04-03 15:50:00,55.3,23.5,30.23,NW,326,2.0,4.0,29,0.00,,,0.00,Wunderground v.1.15,2013-04-03 19:50:00,
2013-04-03 15:55:00,55.3,23.5,30.23,NNW,331,2.0,6.0,29,0.00,,,0.00,Wunderground v.1.15,2013-04-03 19:55:00,
2013-04-03 16:00:00,55.2,23.5,30.23,NW,321,3.0,4.0,29,0.00,,,0.00,Wunderground v.1.15,2013-04-03 20:00:00,
2013-04-03 16:07:00,55.2,23.5,30.23,NNW,347,3.0,4.0,29,0.00,,,0.00,Wunderground v.1.15,2013-04-03 20:07:00,
2013-04-03 16:12:00,55.2,23.5,30.23,NE,49,1.0,2.0,29,0.00,,,0.00,Wunderground v.1.15,2013-04-03 20:12:00,
2013-04-03 16:18:00,55.3,24.4,30.23,NNW,328,2.0,6.0,30,0.00,,,0.00,Wunderground v.1.15,2013-04-03 20:18:00,
2013-04-03 16:24:00,55.1,23.4,30.23,North,11,3.0,4.0,29,0.00,,,0.00,Wunderground v.1.15,2013-04-03 20:24:00,
2013-04-03 16:30:00,55.2,23.5,30.23,NNE,22,3.0,3.0,29,0.00,,,0.00,Wunderground v.1.15,2013-04-03 20:30:00,
2013-04-03 16:35:00,55.0,23.3,30.23,NNW,340,3.0,4.0,29,0.00,,,0.00,Wunderground v.1.15,2013-04-03 20:35:00,
2013-04-03 16:40:00,54.8,23.9,30.23,NNW,340,3.0,4.0,30,0.00,,,0.00,Wunderground v.1.15,2013-04-03 20:40:00,
2013-04-03 16:47:00,54.9,23.2,30.23,North,357,2.0,6.0,29,0.00,,,0.00,Wunderground v.1.15,2013-04-03 20:47:00,
2013-04-03 16:52:00,54.6,22.1,30.23,NE,40,3.0,6.0,28,0.00,,,0.00,Wunderground v.1.15,2013-04-03 20:52:00,
2013-04-03 16:58:00,54.2,22.6,30.23,NNW,337,4.0,6.0,29,0.00,,,0.00,Wunderground v.1.15,2013-04-03 20:58:00,
2013-04-03 17:03:00,54.1,22.5,30.23,North,359,4.0,4.0,29,0.00,,,0.00,Wunderground v.1.15,2013-04-03 21:03:00,
2013-04-03 17:08:00,53.9,22.3,30.23,NNW,333,4.0,4.0,29,0.00,,,0.00,Wunderground v.1.15,2013-04-03 21:08:00,
2013-04-03 17:14:00,53.6,21.2,30.23,NNE,23,4.0,6.0,28,0.00,,,0.00,Wunderground v.1.15,2013-04-03 21:14:00,
2013-04-03 17:19:00,53.4,21.9,30.23,North,352,4.0,6.0,29,0.00,,,0.00,Wunderground v.1.15,2013-04-03 21:19:00,
2013-04-03 17:24:00,53.2,21.7,30.23,NNW,340,3.0,7.0,29,0.00,,,0.00,Wunderground v.1.15,2013-04-03 21:24:00,
2013-04-03 17:30:00,53.2,22.5,30.23,NE,44,3.0,3.0,30,0.00,,,0.00,Wunderground v.1.15,2013-04-03 21:30:00,
2013-04-03 17:35:00,53.1,21.6,30.23,North,4,2.0,4.0,29,0.00,,,0.00,Wunderground v.1.15,2013-04-03 21:35:00,
2013-04-03 17:41:00,52.9,21.5,30.23,NE,55,3.0,9.0,29,0.00,,,0.00,Wunderground v.1.15,2013-04-03 21:41:00,
2013-04-03 17:47:00,52.8,21.4,30.23,NNE,16,3.0,9.0,29,0.00,,,0.00,Wunderground v.1.15,2013-04-03 21:47:00,
2013-04-03 17:52:00,52.8,19.7,30.23,NNW,332,3.0,9.0,27,0.00,,,0.00,Wunderground v.1.15,2013-04-03 21:52:00,
2013-04-03 17:58:00,52.7,21.3,30.23,North,352,3.0,9.0,29,0.00,,,0.00,Wunderground v.1.15,2013-04-03 21:58:00,
2013-04-03 18:03:00,52.7,19.6,30.23,NNW,344,2.0,3.0,27,0.00,,,0.00,Wunderground v.1.15,2013-04-03 22:03:00,
2013-04-03 18:09:00,52.6,17.7,30.23,North,4,3.0,4.0,25,0.00,,,0.00,Wunderground v.1.15,2013-04-03 22:09:00,
2013-04-03 18:15:00,52.5,18.6,30.23,NNE,26,2.0,3.0,26,0.00,,,0.00,Wunderground v.1.15,2013-04-03 22:15:00,
2013-04-03 18:20:00,52.4,18.5,30.23,NE,44,1.0,1.0,26,0.00,,,0.00,Wunderground v.1.15,2013-04-03 22:20:00,
2013-04-03 18:27:00,52.3,19.3,30.23,NNW,347,1.0,2.0,27,0.00,,,0.00,Wunderground v.1.15,2013-04-03 22:27:00,
2013-04-03 18:33:00,52.1,19.1,30.23,North,6,2.0,3.0,27,0.00,,,0.00,Wunderground v.1.15,2013-04-03 22:33:00,
2013-04-03 18:38:00,52.0,19.0,30.23,NE,39,2.0,3.0,27,0.00,,,0.00,Wunderground v.1.15,2013-04-03 22:38:00,
2013-04-03 18:44:00,51.8,20.5,30.23,NNE,12,1.0,2.0,29,0.00,,,0.00,Wunderground v.1.15,2013-04-03 22:44:00,
2013-04-03 18:49:00,51.6,19.5,30.23,ENE,70,1.0,2.0,28,0.00,,,0.00,Wunderground v.1.15,2013-04-03 22:49:00,
2013-04-03 18:55:00,51.4,19.0,30.23,East,85,0.0,3.0,28,0.00,,,0.00,weatherlink.com 1.10,2013-04-03 22:55:00,
2013-04-03 19:01:00,51.1,19.9,30.23,NNE,27,1.0,1.0,29,0.00,,,0.00,Wunderground v.1.15,2013-04-03 23:01:00,
2013-04-03 19:06:00,50.9,20.5,30.23,WNW,296,1.0,2.0,30,0.00,,,0.00,Wunderground v.1.15,2013-04-03 23:06:00,
2013-04-03 19:12:00,50.6,20.3,30.23,ENE,61,1.0,2.0,30,0.00,,,0.00,Wunderground v.1.15,2013-04-03 23:12:00,
2013-04-03 19:17:00,50.5,20.9,30.23,NE,34,1.0,2.0,31,0.00,,,0.00,Wunderground v.1.15,2013-04-03 23:17:00,
2013-04-03 19:23:00,50.3,20.8,30.23,NNW,328,1.0,2.0,31,0.00,,,0.00,Wunderground v.1.15,2013-04-03 23:23:00,
2013-04-03 19:30:00,50.1,21.3,30.23,North,354,1.0,2.0,32,0.00,,,0.00,Wunderground v.1.15,2013-04-03 23:30:00,
2013-04-03 19:35:00,49.9,21.9,30.24,NNE,20,0.0,1.0,33,0.00,,,0.00,Wunderground v.1.15,2013-04-03 23:35:00,
2013-04-03 19:41:00,49.8,21.0,30.24,NE,39,1.0,3.0,32,0.00,,,0.00,weatherlink.com 1.10,2013-04-03 23:41:00,
2013-04-03 19:46:00,49.6,21.6,30.24,NNE,25,1.0,4.0,33,0.00,,,0.00,Wunderground v.1.15,2013-04-03 23:46:00,
2013-04-03 19:52:00,49.5,21.5,30.24,NE,39,1.0,4.0,33,0.00,,,0.00,Wunderground v.1.15,2013-04-03 23:52:00,
2013-04-03 19:58:00,49.3,22.1,30.24,ENE,70,0.0,4.0,34,0.00,,,0.00,Wunderground v.1.15,2013-04-03 23:58:00,
2013-04-03 20:04:00,49.2,22.0,30.24,NNE,19,0.0,0.0,34,0.00,,,0.00,Wunderground v.1.15,2013-04-04 00:04:00,
2013-04-03 20:09:00,49.0,21.8,30.24,North,357,0.0,2.0,34,0.00,,,0.00,Wunderground v.1.15,2013-04-04 00:09:00,
2013-04-03 20:15:00,48.9,21.7,30.24,North,352,0.0,0.0,34,0.00,,,0.00,Wunderground v.1.15,2013-04-04 00:15:00,
2013-04-03 20:20:00,48.9,21.7,30.24,ENE,70,0.0,0.0,34,0.00,,,0.00,Wunderground v.1.15,2013-04-04 00:20:00,
2013-04-03 20:25:00,48.7,21.5,30.24,ESE,108,0.0,0.0,34,0.00,,,0.00,Wunderground v.1.15,2013-04-04 00:25:00,
2013-04-03 20:30:00,48.6,21.5,30.24,SE,141,0.0,0.0,34,0.00,,,0.00,Wunderground v.1.15,2013-04-04 00:30:00,
2013-04-03 20:35:00,48.5,21.4,30.25,SE,140,0.0,0.0,34,0.00,,,0.00,Wunderground v.1.15,2013-04-04 00:35:00,
2013-04-03 20:41:00,48.3,22.5,30.25,SE,139,0.0,3.0,36,0.00,,,0.00,Wunderground v.1.15,2013-04-04 00:41:00,
2013-04-03 20:47:00,48.0,21.6,30.25,SE,139,0.0,3.0,35,0.00,,,0.00,Wunderground v.1.15,2013-04-04 00:47:00,
2013-04-03 20:53:00,47.8,22.1,30.25,SSE,162,0.0,3.0,36,0.00,,,0.00,Wunderground v.1.15,2013-04-04 00:53:00,
2013-04-03 20:58:00,47.7,22.0,30.25,South,175,0.0,3.0,36,0.00,,,0.00,Wunderground v.1.15,2013-04-04 00:58:00,
2013-04-03 21:04:00,47.5,22.5,30.25,South,176,0.0,1.0,37,0.00,,,0.00,Wunderground v.1.15,2013-04-04 01:04:00,
2013-04-03 21:10:00,47.3,21.7,30.25,South,176,0.0,0.0,36,0.00,,,0.00,Wunderground v.1.15,2013-04-04 01:10:00,
2013-04-03 21:15:00,47.3,22.3,30.26,SSW,193,0.0,1.0,37,0.00,,,0.00,Wunderground v.1.15,2013-04-04 01:15:00,
2013-04-03 21:20:00,47.2,21.6,30.25,SSW,194,0.0,0.0,36,0.00,,,0.00,Wunderground v.1.15,2013-04-04 01:20:00,
2013-04-03 21:25:00,47.1,21.5,30.26,SSW,194,0.0,1.0,36,0.00,,,0.00,Wunderground v.1.15,2013-04-04 01:25:00,
2013-04-03 21:30:00,47.1,22.1,30.26,SSW,194,0.0,0.0,37,0.00,,,0.00,Wunderground v.1.15,2013-04-04 01:30:00,
2013-04-03 21:42:00,47.0,21.0,30.27,SSW,194,0.0,1.0,36,0.00,,,0.00,weatherlink.com 1.10,2013-04-04 01:42:00,
2013-04-03 21:57:00,47.0,20.0,30.26,SSW,205,0.0,1.0,35,0.00,,,0.00,weatherlink.com 1.10,2013-04-04 01:57:00,
2013-04-03 22:12:00,46.8,21.0,30.27,SSW,205,0.0,1.0,36,0.00,,,0.00,weatherlink.com 1.10,2013-04-04 02:12:00,
2013-04-03 22:27:00,46.6,21.0,30.27,SSW,205,0.0,0.0,36,0.00,,,0.00,weatherlink.com 1.10,2013-04-04 02:27:00,
2013-04-03 22:42:00,46.4,21.0,30.28,SSW,205,0.0,0.0,37,0.00,,,0.00,weatherlink.com 1.10,2013-04-04 02:42:00,
2013-04-03 22:57:00,46.3,21.0,30.28,South,172,0.0,1.0,36,0.00,,,0.00,weatherlink.com 1.10,2013-04-04 02:57:00,
2013-04-03 23:12:00,46.1,24.0,30.28,South,169,0.0,1.0,42,0.00,,,0.00,weatherlink.com 1.10,2013-04-04 03:12:00,
2013-04-03 23:27:00,45.5,22.0,30.27,West,264,0.0,2.0,39,0.00,,,0.00,weatherlink.com 1.10,2013-04-04 03:27:00,
2013-04-03 23:42:00,45.8,24.0,30.27,SW,224,0.0,3.0,43,0.00,,,0.00,weatherlink.com 1.10,2013-04-04 03:42:00,
2013-04-03 23:57:00,45.9,25.0,30.27,NW,317,0.0,2.0,44,0.00,,,0.00,weatherlink.com 1.10,2013-04-04 03:57:00,